createdAt,value
2018-07-11T00:00:48.018Z,3.90
2018-07-11T00:03:18.065Z,3.03
2018-07-11T00:05:46.713Z,2.80
2018-07-11T00:08:15.439Z,4.40
2018-07-11T00:10:44.150Z,3.10
2018-07-11T00:13:12.771Z,3.70
2018-07-11T00:15:41.387Z,3.23
2018-07-11T00:18:10.039Z,3.30
2018-07-11T00:20:38.793Z,3.67
2018-07-11T00:23:07.984Z,3.37
2018-07-11T00:25:36.908Z,4.20
2018-07-11T00:28:05.876Z,3.03
2018-07-11T00:30:34.736Z,2.77
2018-07-11T00:33:03.536Z,3.83
2018-07-11T00:35:32.295Z,3.80
2018-07-11T00:38:00.992Z,3.87
2018-07-11T00:40:29.625Z,3.80
2018-07-11T00:42:58.347Z,3.60
2018-07-11T00:45:27.171Z,4.33
2018-07-11T00:47:55.840Z,3.50
2018-07-11T00:50:24.482Z,3.37
2018-07-11T00:52:53.439Z,3.40
2018-07-11T00:55:22.403Z,4.27
2018-07-11T00:57:51.187Z,4.33
2018-07-11T01:00:20.295Z,3.87
2018-07-11T01:02:49.063Z,3.50
2018-07-11T01:05:17.810Z,3.90
2018-07-11T01:07:46.694Z,3.47
2018-07-11T01:10:15.451Z,4.50
2018-07-11T01:12:44.350Z,4.10
2018-07-11T01:15:13.356Z,4.43
2018-07-11T01:17:48.344Z,4.10
2018-07-11T01:20:17.347Z,4.10
2018-07-11T01:22:46.289Z,3.93
2018-07-11T01:25:14.921Z,4.10
2018-07-11T01:27:43.472Z,4.70
2018-07-11T01:30:12.127Z,5.00
2018-07-11T01:32:40.968Z,3.80
2018-07-11T01:35:09.728Z,4.57
2018-07-11T01:37:38.668Z,4.10
2018-07-11T01:40:07.220Z,5.00
2018-07-11T01:42:35.818Z,4.30
2018-07-11T01:45:04.406Z,5.30
2018-07-11T01:47:32.988Z,5.07
2018-07-11T01:50:02.014Z,5.43
2018-07-11T01:52:41.755Z,5.03
2018-07-11T01:55:10.657Z,4.73
2018-07-11T01:57:39.240Z,5.27
2018-07-11T02:00:08.018Z,5.53
2018-07-11T02:02:37.032Z,4.20
2018-07-11T02:05:05.690Z,5.00
2018-07-11T02:07:34.535Z,4.87
2018-07-11T02:10:03.324Z,5.10
2018-07-11T02:12:32.018Z,4.70
2018-07-11T02:15:07.756Z,5.83
2018-07-11T02:17:38.293Z,3.80
2018-07-11T02:20:09.084Z,4.83
2018-07-11T02:22:39.501Z,5.47
2018-07-11T02:25:08.457Z,4.77
2018-07-11T02:27:37.798Z,5.10
2018-07-11T02:30:06.472Z,5.43
2018-07-11T02:32:35.489Z,5.50
2018-07-11T02:35:04.144Z,5.00
2018-07-11T02:37:32.910Z,4.87
2018-07-11T02:40:01.907Z,5.53
2018-07-11T02:42:30.592Z,5.47
2018-07-11T02:44:59.280Z,6.20
2018-07-11T02:47:33.638Z,5.10
2018-07-11T02:50:02.277Z,5.80
2018-07-11T02:52:30.865Z,6.40
2018-07-11T02:54:59.926Z,6.03
2018-07-11T02:57:28.560Z,5.70
2018-07-11T02:59:57.128Z,6.17
2018-07-11T03:02:25.973Z,7.53
2018-07-11T03:04:54.694Z,7.10
2018-07-11T03:07:23.301Z,6.43
2018-07-11T03:09:52.481Z,6.30
2018-07-11T03:12:21.098Z,6.77
2018-07-11T03:14:51.645Z,6.93
2018-07-11T03:17:20.645Z,6.93
2018-07-11T03:19:49.239Z,6.50
2018-07-11T03:22:18.865Z,6.20
2018-07-11T03:24:47.488Z,6.67
2018-07-11T03:27:16.277Z,7.40
2018-07-11T03:29:45.104Z,6.57
2018-07-11T03:32:13.740Z,6.87
2018-07-11T03:34:42.312Z,7.00
2018-07-11T03:37:11.448Z,7.07
2018-07-11T03:39:41.181Z,6.23
2018-07-11T03:42:09.856Z,8.20
2018-07-11T03:44:38.889Z,7.90
2018-07-11T03:47:07.725Z,8.33
2018-07-11T03:49:36.422Z,6.97
2018-07-11T03:52:05.412Z,7.90
2018-07-11T03:54:34.898Z,7.33
2018-07-11T03:57:03.453Z,7.30
2018-07-11T03:59:32.320Z,8.97
2018-07-11T04:02:00.928Z,7.20
2018-07-11T04:04:30.411Z,8.53
2018-07-11T04:06:59.363Z,8.83
2018-07-11T04:09:28.025Z,9.63
2018-07-11T04:11:56.668Z,8.57
2018-07-11T04:14:25.750Z,7.30
2018-07-11T04:16:54.365Z,8.83
2018-07-11T04:19:23.022Z,9.27
2018-07-11T04:21:51.784Z,9.50
2018-07-11T04:24:20.443Z,9.23
2018-07-11T04:26:49.056Z,8.57
2018-07-11T04:29:18.153Z,7.53
2018-07-11T04:31:46.859Z,8.73
2018-07-11T04:34:15.648Z,8.27
2018-07-11T04:36:44.737Z,9.10
2018-07-11T04:39:13.352Z,9.73
2018-07-11T04:41:42.140Z,8.47
2018-07-11T04:44:11.420Z,8.30
2018-07-11T04:46:40.146Z,8.67
2018-07-11T04:49:08.843Z,8.97
2018-07-11T04:51:38.195Z,9.27
2018-07-11T04:54:06.920Z,8.93
2018-07-11T04:56:35.496Z,8.90
2018-07-11T04:59:04.442Z,9.80
2018-07-11T05:01:33.320Z,8.50
2018-07-11T05:04:02.135Z,9.43
2018-07-11T05:06:31.281Z,10.33
2018-07-11T05:08:59.856Z,8.50
2018-07-11T05:11:28.559Z,11.47
2018-07-11T05:13:57.381Z,9.03
2018-07-11T05:16:26.089Z,10.37
2018-07-11T05:18:54.809Z,10.03
2018-07-11T05:21:23.824Z,9.47
2018-07-11T05:23:52.364Z,8.83
2018-07-11T05:26:21.120Z,10.37
2018-07-11T05:28:49.911Z,8.50
2018-07-11T05:31:18.556Z,9.20
2018-07-11T05:33:47.208Z,8.47
2018-07-11T05:36:16.193Z,9.00
2018-07-11T05:38:45.037Z,8.60
2018-07-11T05:41:13.804Z,7.67
2018-07-11T05:43:42.533Z,8.50
2018-07-11T05:46:11.108Z,7.63
2018-07-11T05:48:39.701Z,8.43
2018-07-11T05:51:08.872Z,9.10
2018-07-11T05:53:37.579Z,8.70
2018-07-11T05:56:06.327Z,8.33
2018-07-11T05:58:35.252Z,8.03
2018-07-11T06:01:03.817Z,7.80
2018-07-11T06:03:32.380Z,8.67
2018-07-11T06:06:01.299Z,7.90
2018-07-11T06:08:29.963Z,7.77
2018-07-11T06:10:58.637Z,8.10
2018-07-11T06:13:27.344Z,8.40
2018-07-11T06:15:57.611Z,7.93
2018-07-11T06:18:28.008Z,7.30
2018-07-11T06:20:58.264Z,8.57
2018-07-11T06:23:28.195Z,7.10
2018-07-11T06:25:58.296Z,7.80
2018-07-11T06:28:28.444Z,7.80
2018-07-11T06:30:58.797Z,7.90
2018-07-11T06:33:28.956Z,8.37
2018-07-11T06:35:57.689Z,8.83
2018-07-11T06:38:30.693Z,8.77
2018-07-11T06:41:03.794Z,9.10
2018-07-11T06:43:37.466Z,9.33
2018-07-11T06:46:07.642Z,8.60
2018-07-11T06:48:39.169Z,8.03
2018-07-11T06:51:09.258Z,8.33
2018-07-11T06:53:41.547Z,8.43
2018-07-11T06:56:11.154Z,8.33
2018-07-11T06:58:43.864Z,9.07
2018-07-11T07:01:14.783Z,9.03
2018-07-11T07:03:44.787Z,7.87
2018-07-11T07:06:16.681Z,7.00
2018-07-11T07:08:48.654Z,6.60
2018-07-11T07:11:19.080Z,7.43
2018-07-11T07:13:51.049Z,7.27
2018-07-11T07:16:22.207Z,8.00
2018-07-11T07:18:51.252Z,7.53
2018-07-11T07:21:21.928Z,7.20
2018-07-11T07:23:50.760Z,8.17
2018-07-11T07:26:19.562Z,7.90
2018-07-11T07:28:48.313Z,8.00
2018-07-11T07:31:17.252Z,7.00
2018-07-11T07:33:45.894Z,6.90
2018-07-11T07:36:14.528Z,8.00
2018-07-11T07:38:44.936Z,7.30
2018-07-11T07:41:13.580Z,5.60
2018-07-11T07:43:42.800Z,6.63
2018-07-11T07:46:11.556Z,7.33
2018-07-11T07:48:40.158Z,6.77
2018-07-11T07:51:08.933Z,5.70
2018-07-11T07:53:37.787Z,8.20
2018-07-11T07:56:06.680Z,7.43
2018-07-11T07:58:35.291Z,8.67
2018-07-11T08:01:04.339Z,6.27
2018-07-11T08:03:35.041Z,6.13
2018-07-11T08:06:03.676Z,6.90
2018-07-11T08:08:32.436Z,5.50
2018-07-11T08:11:01.104Z,7.03
2018-07-11T08:13:30.021Z,7.27
2018-07-11T08:15:58.819Z,6.97
2018-07-11T08:18:27.509Z,7.00
2018-07-11T08:20:56.698Z,6.60
2018-07-11T08:23:45.854Z,7.10
2018-07-11T08:26:26.144Z,7.67
2018-07-11T08:31:08.392Z,6.83
2018-07-11T08:35:00.169Z,7.80
2018-07-11T08:37:38.831Z,5.60
2018-07-11T08:42:22.543Z,5.73
2018-07-11T08:49:13.540Z,6.07
2018-07-11T08:51:54.497Z,5.90
2018-07-11T08:55:51.376Z,6.20
2018-07-11T08:59:00.312Z,5.80
2018-07-11T09:01:40.311Z,5.77
2018-07-11T09:05:27.438Z,6.20
2018-07-11T09:10:11.988Z,6.53
2018-07-11T09:12:51.912Z,5.43
2018-07-11T09:16:31.850Z,5.03
2018-07-11T09:19:38.196Z,4.60
2018-07-11T09:22:17.174Z,4.77
2018-07-11T09:24:48.688Z,4.30
2018-07-11T09:27:17.596Z,5.33
2018-07-11T09:29:47.322Z,5.40
2018-07-11T09:32:16.469Z,5.00
2018-07-11T09:34:46.747Z,3.90
2018-07-11T09:37:15.516Z,3.90
2018-07-11T09:39:44.731Z,3.90
2018-07-11T09:42:13.505Z,5.43
2018-07-11T09:44:46.322Z,4.33
2018-07-11T09:47:20.363Z,5.00
2018-07-11T09:49:49.069Z,5.23
2018-07-11T09:52:17.666Z,4.50
2018-07-11T09:54:46.529Z,4.47
2018-07-11T09:57:15.119Z,4.30
2018-07-11T09:59:43.787Z,5.00
2018-07-11T10:02:12.443Z,4.60
2018-07-11T10:04:41.707Z,3.73
2018-07-11T10:07:11.104Z,4.43
2018-07-11T10:09:40.041Z,3.83
2018-07-11T10:12:09.140Z,3.63
2018-07-11T10:14:37.814Z,4.40
2018-07-11T10:17:06.428Z,3.60
2018-07-11T10:19:35.007Z,4.03
2018-07-11T10:22:03.710Z,4.17
2018-07-11T10:24:32.456Z,4.27
2018-07-11T10:27:01.104Z,5.20
2018-07-11T10:29:29.650Z,4.20
2018-07-11T10:31:58.452Z,3.90
2018-07-11T10:34:27.065Z,4.37
2018-07-11T10:36:55.765Z,3.93
2018-07-11T10:39:24.649Z,3.60
2018-07-11T10:41:53.542Z,3.60
2018-07-11T10:44:22.079Z,4.43
2018-07-11T10:46:55.575Z,4.43
2018-07-11T10:49:24.288Z,4.60
2018-07-11T10:51:52.861Z,3.97
2018-07-11T10:54:21.695Z,4.10
2018-07-11T10:56:50.682Z,3.80
2018-07-11T10:59:19.524Z,3.43
2018-07-11T11:01:48.324Z,4.40
2018-07-11T11:04:20.713Z,4.30
2018-07-11T11:06:49.462Z,3.93
2018-07-11T11:09:18.307Z,3.93
2018-07-11T11:11:46.887Z,4.20
2018-07-11T11:14:16.108Z,5.00
2018-07-11T11:16:44.979Z,3.63
2018-07-11T11:19:13.684Z,3.60
2018-07-11T11:21:42.571Z,4.10
2018-07-11T11:24:11.193Z,3.87
2018-07-11T11:26:39.848Z,4.53
2018-07-11T11:29:08.723Z,4.50
2018-07-11T11:31:37.593Z,4.20
2018-07-11T11:34:06.543Z,4.40
2018-07-11T11:36:35.517Z,4.30
2018-07-11T11:39:04.705Z,3.47
2018-07-11T11:41:33.440Z,3.53
2018-07-11T11:44:02.978Z,3.60
2018-07-11T11:46:31.623Z,3.47
2018-07-11T11:49:00.375Z,3.60
2018-07-11T11:51:29.092Z,4.00
2018-07-11T11:53:57.848Z,3.80
2018-07-11T11:56:26.481Z,4.03
2018-07-11T11:58:55.331Z,4.23
2018-07-11T12:01:24.236Z,3.90
2018-07-11T12:03:52.939Z,4.40
2018-07-11T12:06:21.743Z,3.67
2018-07-11T12:08:50.279Z,4.53
2018-07-11T12:11:18.916Z,3.53
2018-07-11T12:13:47.716Z,4.00
2018-07-11T12:16:16.363Z,3.50
2018-07-11T12:18:44.920Z,3.10
2018-07-11T12:21:13.778Z,3.60
2018-07-11T12:23:42.389Z,4.57
2018-07-11T12:26:11.540Z,4.20
2018-07-11T12:28:40.223Z,4.17
2018-07-11T12:31:08.879Z,4.40
2018-07-11T12:33:37.723Z,4.20
2018-07-11T12:36:06.463Z,3.70
2018-07-11T12:38:35.378Z,3.23
2018-07-11T12:41:04.030Z,4.20
2018-07-11T12:43:32.830Z,5.10
2018-07-11T12:46:01.572Z,3.97
2018-07-11T12:48:35.878Z,4.10
2018-07-11T12:51:04.607Z,4.00
2018-07-11T12:53:33.319Z,4.80
2018-07-11T12:56:02.017Z,4.37
2018-07-11T12:58:30.736Z,3.63
2018-07-11T13:00:59.367Z,4.70
2018-07-11T13:03:28.180Z,3.53
2018-07-11T13:05:56.819Z,3.80
2018-07-11T13:08:25.486Z,3.93
2018-07-11T13:10:54.147Z,4.50
2018-07-11T13:13:22.920Z,3.67
2018-07-11T13:15:51.597Z,3.63
2018-07-11T13:18:20.455Z,4.40
2018-07-11T13:20:49.123Z,3.60
2018-07-11T13:23:17.872Z,4.20
2018-07-11T13:25:46.588Z,3.80
2018-07-11T13:28:15.290Z,3.70
2018-07-11T13:30:44.081Z,4.17
2018-07-11T13:33:12.946Z,3.40
2018-07-11T13:35:41.623Z,4.00
2018-07-11T13:38:12.589Z,3.83
2018-07-11T13:40:41.575Z,4.13
2018-07-11T13:43:11.451Z,3.67
2018-07-11T13:45:40.355Z,3.77
2018-07-11T13:48:08.971Z,3.40
2018-07-11T13:50:37.651Z,3.37
2018-07-11T13:53:06.311Z,3.77
2018-07-11T13:55:35.052Z,3.17
2018-07-11T13:58:03.748Z,3.60
2018-07-11T14:00:33.712Z,3.70
2018-07-11T14:03:03.349Z,2.77
2018-07-11T14:05:32.215Z,2.90
2018-07-11T14:08:01.029Z,3.37
2018-07-11T14:10:29.631Z,3.50
2018-07-11T14:12:58.705Z,3.27
2018-07-11T14:15:27.756Z,3.30
2018-07-11T14:17:56.583Z,3.60
2018-07-11T14:20:25.238Z,3.20
2018-07-11T14:22:53.834Z,2.67
2018-07-11T14:25:22.700Z,3.80
2018-07-11T14:27:51.788Z,2.83
2018-07-11T14:30:25.556Z,2.53
2018-07-11T14:32:56.606Z,2.47
2018-07-11T14:35:26.355Z,2.27
2018-07-11T14:37:55.072Z,2.43
2018-07-11T14:40:23.888Z,2.50
2018-07-11T14:42:52.627Z,2.10
2018-07-11T14:45:22.023Z,2.23
2018-07-11T14:47:57.987Z,2.03
2018-07-11T14:50:26.560Z,2.03
2018-07-11T14:52:55.379Z,2.20
2018-07-11T14:55:24.024Z,2.10
2018-07-11T14:57:52.698Z,1.70
2018-07-11T15:00:21.260Z,1.83
2018-07-11T15:02:50.192Z,1.70
2018-07-11T15:05:18.912Z,1.23
2018-07-11T15:07:47.600Z,1.20
2018-07-11T15:10:16.436Z,1.70
2018-07-11T15:12:45.173Z,1.40
2018-07-11T15:15:13.811Z,1.33
2018-07-11T15:17:42.644Z,1.63
2018-07-11T15:20:11.392Z,1.30
2018-07-11T15:22:40.222Z,1.60
2018-07-11T15:25:09.213Z,1.70
2018-07-11T15:27:37.932Z,2.00
2018-07-11T15:30:06.527Z,1.83
2018-07-11T15:32:35.663Z,1.70
2018-07-11T15:35:05.115Z,1.60
2018-07-11T15:37:33.895Z,1.90
2018-07-11T15:40:04.649Z,1.97
2018-07-11T15:42:33.616Z,1.80
2018-07-11T15:45:02.852Z,2.10
2018-07-11T15:47:31.810Z,1.70
2018-07-11T15:50:02.215Z,1.73
2018-07-11T15:52:34.051Z,2.17
2018-07-11T15:55:05.405Z,2.57
2018-07-11T15:57:39.739Z,2.00
2018-07-11T16:00:11.146Z,3.23
2018-07-11T16:02:43.048Z,1.80
2018-07-11T16:05:20.641Z,2.00
2018-07-11T16:07:51.281Z,1.90
2018-07-11T16:10:24.637Z,1.80
2018-07-11T16:12:54.116Z,2.27
2018-07-11T16:15:23.063Z,1.63
2018-07-11T16:17:51.892Z,1.93
2018-07-11T16:20:22.204Z,2.17
2018-07-11T16:22:52.515Z,2.30
2018-07-11T16:25:22.245Z,1.97
2018-07-11T16:27:52.329Z,1.87
2018-07-11T16:30:22.140Z,2.10
2018-07-11T16:32:51.101Z,2.60
2018-07-11T16:35:19.776Z,2.20
2018-07-11T16:37:48.752Z,2.00
2018-07-11T16:40:17.995Z,2.10
2018-07-11T16:42:47.075Z,2.50
2018-07-11T16:45:15.981Z,2.17
2018-07-11T16:47:45.155Z,1.80
2018-07-11T16:50:14.035Z,2.30
2018-07-11T16:52:42.971Z,2.20
2018-07-11T16:55:12.896Z,2.20
2018-07-11T16:57:47.520Z,2.67
2018-07-11T17:00:17.176Z,1.70
2018-07-11T17:02:48.771Z,2.37
2018-07-11T17:05:21.439Z,2.37
2018-07-11T17:07:58.095Z,2.77
2018-07-11T17:10:29.357Z,2.33
2018-07-11T17:13:12.534Z,2.70
2018-07-11T17:15:46.679Z,2.63
2018-07-11T17:18:22.960Z,2.10
2018-07-11T17:20:51.622Z,2.57
2018-07-11T17:23:20.237Z,2.47
2018-07-11T17:25:49.126Z,2.53
2018-07-11T17:28:17.821Z,2.30
2018-07-11T17:30:46.510Z,2.00
2018-07-11T17:33:15.591Z,2.03
2018-07-11T17:35:52.143Z,2.70
2018-07-11T17:38:26.095Z,2.37
2018-07-11T17:40:54.795Z,2.50
2018-07-11T17:43:35.158Z,2.20
2018-07-11T17:46:05.527Z,2.63
2018-07-11T17:48:41.231Z,2.60
2018-07-11T17:51:16.801Z,2.13
2018-07-11T17:53:50.947Z,2.63
2018-07-11T17:56:23.508Z,4.73
2018-07-11T17:58:58.326Z,6.00
2018-07-11T18:01:34.965Z,5.43
2018-07-11T18:05:15.095Z,5.73
2018-07-11T18:07:50.071Z,5.33
2018-07-11T18:10:32.943Z,4.67
2018-07-11T18:13:10.114Z,2.80
2018-07-11T18:16:47.344Z,3.63
2018-07-11T18:21:31.052Z,3.03
2018-07-11T18:24:06.741Z,2.93
2018-07-11T18:26:45.624Z,2.43
2018-07-11T18:29:26.068Z,2.80
2018-07-11T18:32:08.677Z,3.00
2018-07-11T18:34:47.649Z,3.20
2018-07-11T18:37:26.435Z,2.20
2018-07-11T18:40:03.843Z,2.60
2018-07-11T18:43:53.420Z,2.20
2018-07-11T18:46:35.463Z,2.80
2018-07-11T18:50:20.850Z,3.40
2018-07-11T18:52:59.350Z,2.80
2018-07-11T18:55:34.914Z,2.60
2018-07-11T19:00:26.727Z,2.40
2018-07-11T19:03:34.910Z,3.20
2018-07-11T19:06:19.016Z,2.63
2018-07-11T19:09:01.672Z,2.90
2018-07-11T19:11:40.372Z,2.23
2018-07-11T19:14:09.620Z,2.73
2018-07-11T19:16:49.380Z,3.43
2018-07-11T19:19:31.702Z,3.07
2018-07-11T19:22:03.361Z,2.80
2018-07-11T19:25:17.999Z,3.80
2018-07-11T19:28:54.747Z,3.13
2018-07-11T19:31:34.507Z,3.43
2018-07-11T19:34:11.292Z,3.33
2018-07-11T19:36:58.387Z,3.53
2018-07-11T19:39:52.063Z,2.70
2018-07-11T19:42:37.399Z,3.13
2018-07-11T19:45:15.961Z,2.73
2018-07-11T19:47:56.270Z,2.67
2018-07-11T19:50:35.367Z,3.03
2018-07-11T19:54:11.872Z,3.00
2018-07-11T19:56:43.471Z,3.57
2018-07-11T19:59:12.313Z,3.00
2018-07-11T20:01:41.147Z,3.20
2018-07-11T20:04:10.797Z,3.43
2018-07-11T20:06:39.539Z,3.43
2018-07-11T20:09:08.750Z,3.47
2018-07-11T20:11:37.421Z,3.23
2018-07-11T20:14:06.572Z,2.73
2018-07-11T20:16:35.270Z,2.70
2018-07-11T20:19:04.365Z,2.30
2018-07-11T20:21:33.203Z,2.93
2018-07-11T20:24:02.072Z,3.30
2018-07-11T20:26:31.051Z,2.60
2018-07-11T20:28:59.759Z,3.30
2018-07-11T20:31:28.624Z,2.33
2018-07-11T20:33:57.487Z,2.90
2018-07-11T20:36:26.104Z,5.97
2018-07-11T20:38:55.082Z,7.33
2018-07-11T20:41:24.548Z,3.03
2018-07-11T20:43:53.272Z,5.30
2018-07-11T20:46:21.924Z,3.13
2018-07-11T20:48:50.519Z,3.50
2018-07-11T20:51:19.348Z,4.97
2018-07-11T20:53:47.956Z,4.97
2018-07-11T20:56:17.088Z,9.27
2018-07-11T20:58:56.905Z,5.40
2018-07-11T21:01:37.040Z,5.37
2018-07-11T21:06:19.511Z,3.10
2018-07-11T21:09:00.700Z,4.70
2018-07-11T21:12:46.694Z,4.00
2018-07-11T21:15:58.779Z,3.17
2018-07-11T21:18:42.610Z,3.90
2018-07-11T21:21:11.627Z,4.20
2018-07-11T21:23:40.354Z,4.43
2018-07-11T21:26:08.907Z,4.30
2018-07-11T21:28:37.704Z,5.17
2018-07-11T21:31:06.504Z,3.60
2018-07-11T21:33:35.155Z,3.70
2018-07-11T21:36:03.955Z,3.07
2018-07-11T21:38:32.676Z,3.53
2018-07-11T21:41:01.264Z,4.60
2018-07-11T21:43:30.291Z,5.40
2018-07-11T21:45:58.931Z,3.53
2018-07-11T21:48:28.163Z,4.17
2018-07-11T21:50:56.743Z,4.10
2018-07-11T21:53:25.419Z,4.20
2018-07-11T21:55:53.981Z,4.10
2018-07-11T21:58:23.199Z,3.50
2018-07-11T22:00:52.203Z,4.50
2018-07-11T22:03:20.772Z,3.40
2018-07-11T22:05:49.465Z,3.10
2018-07-11T22:08:18.115Z,3.70
2018-07-11T22:10:46.850Z,4.13
2018-07-11T22:13:15.626Z,3.57
2018-07-11T22:15:44.180Z,3.07
2018-07-11T22:18:24.297Z,3.20
2018-07-11T22:20:51.596Z,3.50
2018-07-11T22:23:18.899Z,3.50
2018-07-11T22:25:46.329Z,3.13
2018-07-11T22:28:13.748Z,3.17
2018-07-11T22:30:41.052Z,3.87
2018-07-11T22:33:08.521Z,3.93
2018-07-11T22:35:35.957Z,3.70
2018-07-11T22:38:03.249Z,3.97
2018-07-11T22:40:30.706Z,3.87
2018-07-11T22:42:58.327Z,3.43
2018-07-11T22:45:25.608Z,3.93
2018-07-11T22:47:53.570Z,3.83
2018-07-11T22:50:20.936Z,3.20
2018-07-11T22:52:48.291Z,3.30
2018-07-11T22:55:15.835Z,3.77
2018-07-11T22:57:43.131Z,4.07
2018-07-11T23:00:10.431Z,3.70
2018-07-11T23:02:38.012Z,3.87
2018-07-11T23:05:05.312Z,4.47
2018-07-11T23:07:32.780Z,3.43
2018-07-11T23:10:00.267Z,3.83
2018-07-11T23:12:27.543Z,4.30
2018-07-11T23:14:54.903Z,4.20
2018-07-11T23:17:22.227Z,3.50
2018-07-11T23:19:49.602Z,3.90
2018-07-11T23:22:16.913Z,3.60
2018-07-11T23:24:44.317Z,3.30
2018-07-11T23:27:11.659Z,3.97
2018-07-11T23:29:38.948Z,4.40
2018-07-11T23:32:06.288Z,3.40
2018-07-11T23:34:33.575Z,3.60
2018-07-11T23:37:00.944Z,4.20
2018-07-11T23:39:28.516Z,3.97
2018-07-11T23:41:55.810Z,4.27
2018-07-11T23:44:23.196Z,3.70
2018-07-11T23:46:50.696Z,4.07
2018-07-11T23:49:18.203Z,3.50
2018-07-11T23:51:45.620Z,4.13
2018-07-11T23:54:12.939Z,4.10
2018-07-11T23:56:40.331Z,4.07
2018-07-11T23:59:07.629Z,3.40
